Time;durP1;ratioP1;P1;durP2;ratioP2;P2;SDS_P1;SDS_P2;PMS_P1;PMS_P2;Temp;Humidity;BMP_temperature;BMP_pressure;BME280_temperature;BME280_humidity;BME280_pressure;Samples;Min_cycle;Max_cycle;Signal;HPM_P1;HPM_P2
2023/08/09 00:01:59;;;;;;;5.40;2.17;;;;;;;17.94;96.34;98016.88;4137440;28;20642;-75
2023/08/09 00:04:02;;;;;;;2.30;2.00;;;;;;;17.94;96.73;98006.31;4153146;28;20739;-74
2023/08/09 00:06:06;;;;;;;4.53;2.40;;;;;;;17.95;96.69;98018.50;4151846;28;20690;-74
2023/08/09 00:08:09;;;;;;;5.50;2.17;;;;;;;17.97;96.66;98008.66;4143959;28;20637;-74
2023/08/09 00:10:12;;;;;;;3.30;2.37;;;;;;;17.97;96.97;98006.81;4150634;28;20644;-73
2023/08/09 00:12:15;;;;;;;2.90;2.07;;;;;;;17.99;97.16;98018.06;4140172;28;20629;-74
2023/08/09 00:14:18;;;;;;;3.40;2.03;;;;;;;18.00;97.42;98018.91;4157473;28;21270;-73
2023/08/09 00:16:21;;;;;;;3.00;2.43;;;;;;;17.99;97.40;98011.94;4151006;28;20735;-73
2023/08/09 00:18:26;;;;;;;3.27;2.40;;;;;;;17.97;96.91;98012.09;4155812;28;21024;-74
2023/08/09 00:20:29;;;;;;;4.90;2.47;;;;;;;17.97;97.05;98013.94;4150200;28;20664;-74
2023/08/09 00:22:33;;;;;;;4.80;1.90;;;;;;;18.00;97.72;98011.81;4132062;28;20653;-74
2023/08/09 00:24:36;;;;;;;4.93;2.27;;;;;;;17.99;97.90;97998.75;4148170;28;20642;-74
2023/08/09 00:26:40;;;;;;;3.20;2.67;;;;;;;17.97;99.41;98001.53;4144702;28;20728;-73
2023/08/09 00:28:43;;;;;;;3.20;2.23;;;;;;;17.96;98.82;97999.06;4148557;28;20744;-75
2023/08/09 00:30:46;;;;;;;3.40;2.43;;;;;;;17.94;99.16;98001.03;4143879;28;22134;-74
2023/08/09 00:32:49;;;;;;;5.60;2.50;;;;;;;17.92;98.38;98009.09;4144315;28;20624;-75
2023/08/09 00:34:54;;;;;;;5.33;2.60;;;;;;;17.92;98.33;98008.28;4136618;28;21087;-73
2023/08/09 00:36:57;;;;;;;3.03;2.13;;;;;;;17.92;98.36;98005.66;4143504;28;21198;-73
2023/08/09 00:39:00;;;;;;;3.13;2.20;;;;;;;17.91;98.52;97992.59;4135129;28;20726;-73
2023/08/09 00:41:03;;;;;;;4.43;2.53;;;;;;;17.92;99.01;98002.16;4153603;28;20682;-73
2023/08/09 00:43:06;;;;;;;3.53;2.33;;;;;;;17.92;98.74;97998.53;4157102;28;20643;-74
2023/08/09 00:45:10;;;;;;;3.03;2.13;;;;;;;17.93;98.43;97994.91;4140359;28;20783;-74
2023/08/09 00:47:15;;;;;;;3.30;2.43;;;;;;;17.95;98.33;98006.16;4142851;28;20633;-74
2023/08/09 00:49:17;;;;;;;3.13;2.30;;;;;;;17.95;98.60;98010.59;4135707;28;20625;-75
2023/08/09 00:51:22;;;;;;;3.47;2.00;;;;;;;17.95;98.82;98011.44;4135642;28;21261;-74
2023/08/09 00:53:25;;;;;;;4.40;2.40;;;;;;;17.95;99.71;98006.16;4135094;28;20693;-73
2023/08/09 00:55:28;;;;;;;3.30;2.30;;;;;;;17.96;99.58;97999.06;4141208;28;20637;-73
2023/08/09 00:57:32;;;;;;;5.63;2.33;;;;;;;17.97;99.70;97995.44;4140043;28;21071;-82
2023/08/09 00:59:34;;;;;;;3.33;2.83;;;;;;;17.95;99.87;97998.25;4158729;28;20697;-82
2023/08/09 01:01:38;;;;;;;2.60;2.20;;;;;;;17.93;99.96;97994.91;4120765;28;20630;-82
2023/08/09 01:03:41;;;;;;;5.43;2.43;;;;;;;17.93;99.93;98000.19;4153429;28;21227;-81
2023/08/09 01:05:49;;;;;;;4.23;2.37;;;;;;;17.92;99.80;98007.44;4135345;28;20970;-82
2023/08/09 01:07:58;;;;;;;3.10;2.27;;;;;;;17.90;99.90;98004.13;4138168;28;21235;-81
2023/08/09 01:10:05;;;;;;;3.17;2.40;;;;;;;17.85;100.00;97996.66;4130814;28;20633;-81
2023/08/09 01:12:12;;;;;;;4.83;2.90;;;;;;;17.84;100.00;97995.00;4160526;28;21094;-82
2023/08/09 01:14:17;;;;;;;5.23;2.83;;;;;;;17.80;100.00;97998.94;4141137;28;20711;-82
2023/08/09 01:16:21;;;;;;;3.27;2.40;;;;;;;17.78;100.00;98000.06;4154824;28;20760;-82
2023/08/09 01:18:25;;;;;;;2.77;2.17;;;;;;;17.76;100.00;98002.03;4145967;28;20635;-80
2023/08/09 01:20:28;;;;;;;3.20;2.20;;;;;;;17.74;100.00;97996.03;4151042;28;20740;-82
2023/08/09 01:22:33;;;;;;;3.60;2.60;;;;;;;17.73;100.00;98000.50;4130363;28;20657;-82
2023/08/09 01:24:37;;;;;;;3.60;2.33;;;;;;;17.72;100.00;97998.03;4148677;28;20744;-82
2023/08/09 01:26:41;;;;;;;4.40;2.83;;;;;;;17.69;100.00;97993.03;4124572;28;20614;-81
2023/08/09 01:28:44;;;;;;;4.70;2.77;;;;;;;17.69;100.00;97996.50;4124675;28;20635;-82
2023/08/09 01:30:47;;;;;;;4.03;2.43;;;;;;;17.68;100.00;98005.41;4138393;28;20655;-83
2023/08/09 01:32:51;;;;;;;3.13;2.40;;;;;;;17.68;100.00;97997.50;4119746;28;20907;-82
2023/08/09 01:34:55;;;;;;;3.33;2.80;;;;;;;17.65;100.00;97991.66;4147325;28;20667;-83
2023/08/09 01:37:03;;;;;;;3.63;2.60;;;;;;;17.66;100.00;97990.72;4130808;28;21254;-82
2023/08/09 01:39:10;;;;;;;2.40;2.00;;;;;;;17.69;100.00;97988.59;4124330;28;20624;-82
2023/08/09 01:41:16;;;;;;;3.80;2.10;;;;;;;17.69;100.00;97993.03;4134371;28;20688;-82
2023/08/09 01:43:21;;;;;;;3.40;2.37;;;;;;;17.68;100.00;97997.50;4141672;28;20638;-83
2023/08/09 01:45:25;;;;;;;5.53;2.60;;;;;;;17.65;100.00;98000.44;4146975;28;20633;-82
2023/08/09 01:47:28;;;;;;;4.10;2.60;;;;;;;17.66;100.00;97998.63;4156077;28;21052;-82
2023/08/09 01:49:32;;;;;;;4.10;2.50;;;;;;;17.65;100.00;98007.50;4143412;28;20648;-81
2023/08/09 01:51:35;;;;;;;3.57;2.50;;;;;;;17.66;100.00;98009.16;4146436;28;20643;-82
2023/08/09 01:53:39;;;;;;;3.63;2.90;;;;;;;17.67;100.00;98013.47;4147925;28;20650;-81
2023/08/09 01:55:42;;;;;;;4.23;2.40;;;;;;;17.66;100.00;98017.09;4140480;28;20670;-80
2023/08/09 01:57:47;;;;;;;3.97;2.60;;;;;;;17.65;100.00;98010.13;4154755;28;21278;-82
2023/08/09 01:59:50;;;;;;;2.90;2.30;;;;;;;17.64;100.00;98014.59;4130693;28;20616;-82
2023/08/09 02:01:54;;;;;;;3.93;2.93;;;;;;;17.63;100.00;98026.13;4153593;28;20624;-82
2023/08/09 02:03:58;;;;;;;4.00;2.53;;;;;;;17.60;100.00;98028.22;4153546;28;21081;-82
2023/08/09 02:06:01;;;;;;;4.50;3.00;;;;;;;17.59;100.00;98027.41;4140724;28;20635;-82
2023/08/09 02:08:05;;;;;;;3.37;2.30;;;;;;;17.59;100.00;98031.84;4140393;28;20656;-81
2023/08/09 02:10:10;;;;;;;3.73;2.47;;;;;;;17.58;100.00;98038.94;4151023;28;21250;-83
2023/08/09 02:12:13;;;;;;;6.07;3.07;;;;;;;17.58;100.00;98038.94;4137603;28;20675;-81
2023/08/09 02:14:17;;;;;;;3.30;2.60;;;;;;;17.58;100.00;98049.50;4144974;28;20890;-82
2023/08/09 02:16:21;;;;;;;3.90;2.43;;;;;;;17.57;100.00;98045.19;4125122;28;21057;-80
2023/08/09 02:18:24;;;;;;;3.83;2.30;;;;;;;17.57;100.00;98045.19;4127585;28;20644;-82
2023/08/09 02:20:28;;;;;;;6.30;2.70;;;;;;;17.56;100.00;98046.19;4144183;28;20729;-82
2023/08/09 02:22:36;;;;;;;4.73;2.77;;;;;;;17.55;100.00;98030.50;4151224;28;20631;-82
2023/08/09 02:24:39;;;;;;;3.33;2.80;;;;;;;17.54;100.00;98050.75;4130328;28;20635;-81
2023/08/09 02:26:43;;;;;;;3.10;2.60;;;;;;;17.53;100.00;98043.84;4162622;28;20726;-82
2023/08/09 02:28:48;;;;;;;3.40;2.40;;;;;;;17.53;100.00;98048.28;4148809;28;20656;-80
2023/08/09 02:30:54;;;;;;;3.53;2.57;;;;;;;17.50;100.00;98038.03;4136646;28;20633;-81
2023/08/09 02:32:57;;;;;;;6.50;3.57;;;;;;;17.50;100.00;98040.69;4151486;28;20644;-81
2023/08/09 02:35:00;;;;;;;7.20;2.93;;;;;;;17.51;100.00;98039.69;4148390;28;20645;-82
2023/08/09 02:37:04;;;;;;;4.50;2.57;;;;;;;17.49;100.00;98047.75;4170185;28;20661;-82
2023/08/09 02:39:07;;;;;;;3.93;2.70;;;;;;;17.47;100.00;98044.44;4164603;28;20625;-82
2023/08/09 02:41:10;;;;;;;3.43;2.73;;;;;;;17.46;100.00;98041.94;4151872;28;20711;-81
2023/08/09 02:43:14;;;;;;;3.57;2.57;;;;;;;17.42;100.00;98050.28;4146922;28;20682;-82
2023/08/09 02:45:18;;;;;;;3.97;2.80;;;;;;;17.42;100.00;98039.75;4135039;28;20671;-83
2023/08/09 02:47:23;;;;;;;2.97;2.47;;;;;;;17.40;100.00;98052.25;4162636;28;20614;-82
2023/08/09 02:49:26;;;;;;;3.13;2.43;;;;;;;17.39;100.00;98040.84;4145619;28;20625;-82
2023/08/09 02:51:29;;;;;;;4.40;2.80;;;;;;;17.38;100.00;98038.38;4154141;28;20766;-83
2023/08/09 02:53:35;;;;;;;4.93;2.50;;;;;;;17.33;100.00;98044.09;4148537;28;20715;-82
2023/08/09 02:55:38;;;;;;;4.47;3.17;;;;;;;17.33;100.00;98040.63;4146844;28;21258;-80
2023/08/09 02:57:41;;;;;;;3.43;2.50;;;;;;;17.29;100.00;98031.34;4163178;28;20710;-82
2023/08/09 02:59:44;;;;;;;3.60;3.00;;;;;;;17.24;100.00;98033.59;4148990;28;20632;-82
2023/08/09 03:01:48;;;;;;;3.60;3.00;;;;;;;17.25;100.00;98037.91;4131070;28;20805;-82
2023/08/09 03:03:54;;;;;;;3.20;2.60;;;;;;;17.26;100.00;98036.91;4147260;28;20656;-83
2023/08/09 03:05:57;;;;;;;4.07;2.80;;;;;;;17.26;100.00;98035.13;4143250;28;20646;-81
2023/08/09 03:08:02;;;;;;;3.93;3.10;;;;;;;17.29;100.00;98039.25;4140085;28;20731;-82
2023/08/09 03:10:06;;;;;;;3.90;2.70;;;;;;;17.30;100.00;98043.56;4120075;28;20642;-83
2023/08/09 03:12:09;;;;;;;3.20;2.70;;;;;;;17.30;100.00;98041.75;4139753;28;20673;-82
2023/08/09 03:14:13;;;;;;;3.30;2.63;;;;;;;17.32;100.00;98028.41;4157417;28;20733;-82
2023/08/09 03:16:17;;;;;;;3.23;2.60;;;;;;;17.32;100.00;98029.25;4158401;28;20669;-81
2023/08/09 03:18:20;;;;;;;6.33;3.07;;;;;;;17.32;100.00;98023.13;4141573;28;20633;-81
2023/08/09 03:20:27;;;;;;;3.43;2.47;;;;;;;17.32;100.00;98033.69;4139670;28;20635;-83
2023/08/09 03:22:31;;;;;;;3.60;2.90;;;;;;;17.33;100.00;98023.00;4134149;28;20768;-81
2023/08/09 03:24:34;;;;;;;6.50;3.00;;;;;;;17.32;100.00;98028.41;4145572;28;20628;-82
2023/08/09 03:26:37;;;;;;;3.67;3.00;;;;;;;17.30;100.00;98025.09;4146131;28;20657;-82
2023/08/09 03:28:42;;;;;;;4.37;3.20;;;;;;;17.28;100.00;98025.25;4139566;28;21261;-82
2023/08/09 03:30:48;;;;;;;4.20;2.77;;;;;;;17.30;100.00;98035.66;4139703;28;20680;-82
2023/08/09 03:32:51;;;;;;;4.07;2.80;;;;;;;17.30;100.00;98025.09;4141570;28;20637;-82
2023/08/09 03:34:54;;;;;;;4.23;2.77;;;;;;;17.28;100.00;98033.16;4145786;28;20664;-82
2023/08/09 03:36:59;;;;;;;4.90;2.80;;;;;;;17.28;100.00;98040.25;4128201;28;20704;-82
2023/08/09 03:39:01;;;;;;;3.23;2.70;;;;;;;17.29;100.00;98036.63;4122761;28;20653;-82
2023/08/09 03:41:05;;;;;;;4.10;3.07;;;;;;;17.28;100.00;98041.06;4144362;28;20993;-82
2023/08/09 03:43:08;;;;;;;3.40;2.80;;;;;;;17.29;100.00;98041.88;4136408;28;20610;-80
2023/08/09 03:45:11;;;;;;;4.60;2.93;;;;;;;17.32;100.00;98038.97;4130186;28;20642;-80
2023/08/09 03:47:15;;;;;;;5.17;2.60;;;;;;;17.33;100.00;98041.44;4145581;28;21022;-82
2023/08/09 03:49:19;;;;;;;3.50;3.10;;;;;;;17.34;100.00;98042.28;4137976;28;20675;-82
2023/08/09 03:51:22;;;;;;;3.30;2.40;;;;;;;17.32;100.00;98036.31;4138868;28;20742;-82
2023/08/09 03:53:27;;;;;;;3.00;2.30;;;;;;;17.30;100.00;98038.28;4135252;28;20642;-81
2023/08/09 03:55:30;;;;;;;5.00;3.07;;;;;;;17.33;100.00;98043.25;4143565;28;20972;-82
2023/08/09 03:57:34;;;;;;;3.57;2.53;;;;;;;17.32;100.00;98039.81;4138632;28;21076;-81
2023/08/09 03:59:37;;;;;;;3.43;2.50;;;;;;;17.33;100.00;98038.00;4152196;28;20672;-82
2023/08/09 04:01:40;;;;;;;4.33;3.00;;;;;;;17.33;100.00;98032.72;4145565;28;20660;-82
2023/08/09 04:03:44;;;;;;;3.07;2.50;;;;;;;17.33;100.00;98038.00;4152776;28;20669;-82
2023/08/09 04:05:46;;;;;;;3.10;2.57;;;;;;;17.33;100.00;98040.63;4138934;28;20643;-82
2023/08/09 04:07:50;;;;;;;3.73;2.90;;;;;;;17.30;100.00;98040.91;4120940;28;20634;-82
2023/08/09 04:09:54;;;;;;;4.00;2.50;;;;;;;17.30;100.00;98033.81;4152092;28;20623;-82
2023/08/09 04:11:59;;;;;;;4.30;2.80;;;;;;;17.31;100.00;98032.03;4135843;28;20640;-82
2023/08/09 04:14:02;;;;;;;3.80;3.40;;;;;;;17.30;100.00;98028.56;4127240;28;20645;-82
2023/08/09 04:16:05;;;;;;;3.47;2.77;;;;;;;17.33;100.00;98035.34;4146294;28;20659;-81
2023/08/09 04:18:08;;;;;;;3.40;2.70;;;;;;;17.32;100.00;98028.41;4145788;28;20737;-83
2023/08/09 04:20:12;;;;;;;3.33;2.40;;;;;;;17.30;100.00;98033.00;4137064;28;20737;-81
2023/08/09 04:22:15;;;;;;;4.87;3.40;;;;;;;17.30;100.00;98031.19;4150606;28;20869;-81
2023/08/09 04:24:19;;;;;;;4.07;2.90;;;;;;;17.29;100.00;98034.81;4142169;28;20628;-81
2023/08/09 04:26:23;;;;;;;5.80;2.80;;;;;;;17.29;100.00;98033.97;4155276;28;21194;-74
2023/08/09 04:28:26;;;;;;;3.13;2.50;;;;;;;17.26;100.00;98029.84;4157210;28;21307;-74
2023/08/09 04:30:29;;;;;;;3.30;2.57;;;;;;;17.23;100.00;98024.88;4150346;28;20627;-74
2023/08/09 04:32:33;;;;;;;3.90;2.90;;;;;;;17.26;100.00;98029.84;4144634;28;20630;-73
2023/08/09 04:34:36;;;;;;;4.90;2.47;;;;;;;17.28;100.00;98027.88;4133874;28;20642;-74
2023/08/09 04:36:39;;;;;;;3.93;2.70;;;;;;;17.32;100.00;98033.69;4142918;28;21019;-75
2023/08/09 04:38:43;;;;;;;4.87;3.60;;;;;;;17.31;100.00;98030.22;4144689;28;20647;-74
2023/08/09 04:40:47;;;;;;;3.20;2.67;;;;;;;17.33;100.00;98027.44;4153299;28;20655;-74
2023/08/09 04:42:52;;;;;;;3.40;2.60;;;;;;;17.34;100.00;98026.47;4139477;28;20636;-74
2023/08/09 04:44:54;;;;;;;3.57;2.67;;;;;;;17.35;100.00;98036.03;4149701;28;20746;-74
2023/08/09 04:46:58;;;;;;;5.13;3.20;;;;;;;17.37;100.00;98031.44;4154681;28;21163;-75
2023/08/09 04:49:03;;;;;;;3.70;2.53;;;;;;;17.37;100.00;98032.28;4136141;28;20627;-75
2023/08/09 04:51:07;;;;;;;5.20;2.90;;;;;;;17.39;100.00;98032.13;4146867;28;20639;-74
2023/08/09 04:53:10;;;;;;;5.20;2.67;;;;;;;17.39;100.00;98032.13;4135673;28;20627;-74
2023/08/09 04:55:13;;;;;;;2.60;2.20;;;;;;;17.41;100.00;98035.44;4123816;28;20639;-73
2023/08/09 04:57:16;;;;;;;3.93;2.70;;;;;;;17.42;100.00;98029.19;4156709;28;20691;-74
2023/08/09 04:59:21;;;;;;;3.53;2.63;;;;;;;17.43;100.00;98036.97;4127709;28;21203;-74
2023/08/09 05:01:23;;;;;;;3.20;2.67;;;;;;;17.45;100.00;98027.06;4154053;28;20625;-74
2023/08/09 05:03:26;;;;;;;3.40;2.47;;;;;;;17.47;100.00;98039.16;4153858;28;20648;-75
2023/08/09 05:05:29;;;;;;;3.50;2.97;;;;;;;17.50;100.00;98040.69;4138373;28;20646;-74
2023/08/09 05:07:32;;;;;;;5.33;2.90;;;;;;;17.48;100.00;98040.81;4136866;28;21230;-74
2023/08/09 05:09:35;;;;;;;4.03;2.63;;;;;;;17.49;100.00;98042.47;4154263;28;20742;-74
2023/08/09 05:11:39;;;;;;;3.80;2.60;;;;;;;17.50;100.00;98040.69;4159086;28;21032;-74
2023/08/09 05:13:42;;;;;;;2.90;2.60;;;;;;;17.49;100.00;98037.19;4140403;28;20927;-73
2023/08/09 05:15:45;;;;;;;7.27;2.80;;;;;;;17.51;100.00;98042.31;4138355;28;20641;-74
2023/08/09 05:17:48;;;;;;;4.33;2.60;;;;;;;17.53;100.00;98032.47;4150976;28;21296;-75
2023/08/09 05:19:50;;;;;;;4.60;3.00;;;;;;;17.55;100.00;98030.50;4154690;28;20642;-73
2023/08/09 05:21:54;;;;;;;4.57;3.20;;;;;;;17.57;100.00;98034.63;4138968;28;20662;-73
2023/08/09 05:23:57;;;;;;;4.03;3.30;;;;;;;17.61;100.00;98030.72;4128058;28;20628;-74
2023/08/09 05:25:59;;;;;;;5.33;3.37;;;;;;;17.65;100.00;98032.09;4155760;28;20779;-73
2023/08/09 05:28:02;;;;;;;4.40;2.90;;;;;;;17.68;100.00;98031.78;4154482;28;20625;-74
2023/08/09 05:30:07;;;;;;;3.33;2.67;;;;;;;17.68;100.00;98018.59;4151436;28;20682;-74
2023/08/09 05:32:11;;;;;;;5.93;3.17;;;;;;;17.72;100.00;98017.31;4150659;28;20682;-73
2023/08/09 05:34:13;;;;;;;4.53;3.20;;;;;;;17.72;100.00;98027.03;4155636;28;20618;-74
2023/08/09 05:36:17;;;;;;;4.20;3.10;;;;;;;17.73;100.00;98015.53;4154946;28;20626;-73
2023/08/09 05:38:20;;;;;;;4.10;2.80;;;;;;;17.74;100.00;98014.50;4156416;28;20612;-73
2023/08/09 05:40:23;;;;;;;3.27;2.67;;;;;;;17.75;100.00;98021.47;4139109;28;20612;-73
2023/08/09 05:42:25;;;;;;;3.70;2.90;;;;;;;17.75;100.00;98024.91;4154584;28;20619;-74
2023/08/09 05:44:28;;;;;;;5.47;3.07;;;;;;;17.73;100.00;98026.88;4132890;28;20629;-74
2023/08/09 05:46:31;;;;;;;3.03;2.43;;;;;;;17.67;100.00;98030.13;4128145;28;20645;-74
2023/08/09 05:48:35;;;;;;;7.50;2.93;;;;;;;17.59;100.00;98043.25;4151401;28;20690;-74
2023/08/09 05:50:39;;;;;;;3.67;2.97;;;;;;;17.56;100.00;98038.25;4140209;28;20632;-73
2023/08/09 05:52:42;;;;;;;3.77;2.83;;;;;;;17.58;100.00;98044.22;4156119;28;20638;-73
2023/08/09 05:54:46;;;;;;;4.37;2.80;;;;;;;17.62;100.00;98053.50;4145532;28;20648;-73
2023/08/09 05:56:49;;;;;;;3.50;2.77;;;;;;;17.65;100.00;98055.84;4139167;28;20658;-73
2023/08/09 05:58:52;;;;;;;4.00;3.00;;;;;;;17.68;100.00;98058.19;4151720;28;20719;-73
2023/08/09 06:00:56;;;;;;;4.90;3.27;;;;;;;17.69;100.00;98059.00;4157587;28;20636;-74
2023/08/09 06:03:00;;;;;;;4.20;2.90;;;;;;;17.67;100.00;98060.97;4155626;28;20641;-75
2023/08/09 06:05:05;;;;;;;4.87;3.30;;;;;;;17.66;100.00;98056.66;4157825;28;20682;-73
2023/08/09 06:07:08;;;;;;;3.87;2.97;;;;;;;17.68;100.00;98054.69;4147745;28;20631;-73
2023/08/09 06:09:12;;;;;;;4.60;3.07;;;;;;;17.67;100.00;98072.34;4128063;28;20638;-74
2023/08/09 06:11:16;;;;;;;4.63;2.80;;;;;;;17.71;100.00;98071.06;4137639;28;20754;-75
2023/08/09 06:13:19;;;;;;;3.83;3.10;;;;;;;17.75;100.00;98068.97;4157269;28;20618;-74
2023/08/09 06:15:23;;;;;;;4.20;3.47;;;;;;;17.80;100.00;98074.59;4156603;28;21467;-74
2023/08/09 06:17:27;;;;;;;3.80;2.80;;;;;;;17.82;100.00;98073.50;4142866;28;20651;-73
2023/08/09 06:19:30;;;;;;;3.93;3.00;;;;;;;17.83;100.00;98077.81;4159105;28;20642;-74
2023/08/09 06:21:33;;;;;;;3.73;3.33;;;;;;;17.89;100.00;98079.00;4162317;28;20659;-73
2023/08/09 06:23:36;;;;;;;4.27;3.17;;;;;;;17.96;100.00;98080.88;4159778;28;20669;-76
2023/08/09 06:25:40;;;;;;;4.70;2.83;;;;;;;18.04;100.00;98076.53;4154325;28;20976;-74
2023/08/09 06:27:44;;;;;;;3.73;3.10;;;;;;;18.11;100.00;98082.03;4140454;28;20635;-76
2023/08/09 06:29:47;;;;;;;4.30;2.83;;;;;;;18.16;100.00;98079.78;4150123;28;20651;-74
2023/08/09 06:31:50;;;;;;;4.17;3.00;;;;;;;18.19;100.00;98080.31;4143035;28;20624;-74
2023/08/09 06:33:54;;;;;;;4.40;3.10;;;;;;;18.20;100.00;98083.78;4145309;28;20997;-74
2023/08/09 06:35:58;;;;;;;3.90;3.00;;;;;;;18.23;100.00;98081.66;4141085;28;20695;-75
2023/08/09 06:38:03;;;;;;;4.27;3.10;;;;;;;18.25;100.00;98085.00;4150681;28;21299;-75
2023/08/09 06:40:18;;;;;;;4.00;3.03;;;;;;;18.24;100.00;98085.16;4130359;28;20625;-74
2023/08/09 06:42:21;;;;;;;5.17;3.20;;;;;;;18.19;100.00;98087.41;4151931;28;20660;-74
2023/08/09 06:44:27;;;;;;;6.90;3.30;;;;;;;18.18;100.00;98089.22;4130196;28;20629;-74
2023/08/09 06:46:33;;;;;;;3.80;2.90;;;;;;;18.21;100.00;98088.09;4165299;28;20689;-82
2023/08/09 06:48:36;;;;;;;4.80;3.33;;;;;;;18.21;100.00;98098.66;4159822;28;21047;-83
2023/08/09 06:50:39;;;;;;;3.70;3.00;;;;;;;18.23;100.00;98099.34;4166982;28;21002;-82
2023/08/09 06:52:43;;;;;;;5.10;2.50;;;;;;;18.25;100.00;98105.28;4149558;28;20661;-83
2023/08/09 06:54:48;;;;;;;5.60;2.93;;;;;;;18.26;100.00;98112.22;4133547;28;20972;-82
2023/08/09 06:56:55;;;;;;;3.40;2.83;;;;;;;18.22;100.00;98105.59;4166183;28;20623;-82
2023/08/09 06:58:59;;;;;;;4.50;3.00;;;;;;;18.23;100.00;98110.72;4152598;28;20763;-83
2023/08/09 07:01:03;;;;;;;3.83;2.97;;;;;;;18.25;100.00;98121.97;4168293;28;20627;-81
2023/08/09 07:03:06;;;;;;;3.70;2.90;;;;;;;18.26;100.00;98110.41;4141222;28;20645;-82
2023/08/09 07:05:15;;;;;;;3.47;3.00;;;;;;;18.28;100.00;98115.53;4155540;28;20671;-82
2023/08/09 07:07:18;;;;;;;4.47;3.33;;;;;;;18.30;100.00;98117.06;4154055;28;20640;-81
2023/08/09 07:09:21;;;;;;;4.70;3.40;;;;;;;18.34;100.00;98128.16;4157246;28;20639;-79
2023/08/09 07:11:25;;;;;;;4.80;3.70;;;;;;;18.37;100.00;98119.91;4138682;28;20729;-82
2023/08/09 07:13:28;;;;;;;4.13;3.10;;;;;;;18.39;100.00;98120.59;4142252;28;20633;-83
2023/08/09 07:15:31;;;;;;;3.77;2.90;;;;;;;18.41;100.00;98123.94;4156617;28;20664;-82
2023/08/09 07:17:34;;;;;;;4.70;3.43;;;;;;;18.39;100.00;98128.50;4158424;28;20689;-83
2023/08/09 07:19:37;;;;;;;3.07;2.63;;;;;;;18.39;100.00;98125.88;4138195;28;20630;-83
2023/08/09 07:21:40;;;;;;;4.47;3.53;;;;;;;18.40;100.00;98128.34;4158402;28;20642;-83
2023/08/09 07:23:46;;;;;;;4.40;3.23;;;;;;;18.43;100.00;98131.56;4154960;28;20753;-81
2023/08/09 07:26:00;;;;;;;4.90;3.13;;;;;;;18.46;100.00;98133.88;4157286;28;20636;-83
2023/08/09 07:28:05;;;;;;;5.50;3.00;;;;;;;18.47;100.00;98140.00;4156441;28;20628;-82
2023/08/09 07:30:08;;;;;;;3.50;3.03;;;;;;;18.47;100.00;98142.63;4157042;28;20612;-83
2023/08/09 07:32:11;;;;;;;3.93;2.97;;;;;;;18.47;100.00;98140.00;4135720;28;20669;-83
2023/08/09 07:34:15;;;;;;;3.57;2.60;;;;;;;18.48;100.00;98144.31;4143600;28;20884;-82
2023/08/09 07:36:18;;;;;;;6.23;4.30;;;;;;;18.48;100.00;98139.84;4157711;28;20644;-83
2023/08/09 07:38:20;;;;;;;3.90;3.17;;;;;;;18.46;100.00;98144.47;4141873;28;20640;-82
2023/08/09 07:40:23;;;;;;;3.67;3.07;;;;;;;18.41;100.00;98144.06;4155940;28;20630;-82
2023/08/09 07:42:27;;;;;;;4.30;2.80;;;;;;;18.38;100.00;98154.09;4140365;28;20659;-83
2023/08/09 07:44:31;;;;;;;4.90;3.53;;;;;;;18.40;100.00;98148.66;4156987;28;20616;-83
2023/08/09 07:46:34;;;;;;;4.20;3.10;;;;;;;18.43;100.00;98157.13;4136557;28;20646;-82
2023/08/09 07:48:37;;;;;;;3.77;2.90;;;;;;;18.45;100.00;98148.06;4158695;28;20628;-81
2023/08/09 07:50:40;;;;;;;4.50;2.77;;;;;;;18.49;100.00;98157.34;4158916;28;20720;-83
2023/08/09 07:52:44;;;;;;;2.93;2.63;;;;;;;18.51;100.00;98165.97;4153330;28;20645;-83
2023/08/09 07:54:47;;;;;;;3.37;2.80;;;;;;;18.56;100.00;98166.31;4145124;28;21175;-83
2023/08/09 07:56:50;;;;;;;5.50;4.03;;;;;;;18.60;100.00;98165.03;4162366;28;21070;-74
2023/08/09 07:58:54;;;;;;;4.37;3.63;;;;;;;18.66;100.00;98164.44;4160526;28;20660;-74
2023/08/09 08:00:58;;;;;;;4.00;3.07;;;;;;;18.71;100.00;98164.81;4143064;28;20640;-74
2023/08/09 08:03:01;;;;;;;8.30;4.13;;;;;;;18.73;100.00;98169.94;4146635;28;20618;-74
2023/08/09 08:05:06;;;;;;;3.70;3.37;;;;;;;18.72;100.00;98163.84;4155914;28;20666;-75
2023/08/09 08:07:10;;;;;;;4.20;3.03;;;;;;;18.74;100.00;98174.25;4153182;28;20673;-74
2023/08/09 08:09:13;;;;;;;3.60;2.70;;;;;;;18.76;100.00;98172.28;4154151;28;20978;-73
2023/08/09 08:11:16;;;;;;;3.80;3.03;;;;;;;18.76;100.00;98172.28;4152484;28;20636;-73
2023/08/09 08:13:19;;;;;;;5.27;3.30;;;;;;;18.78;100.00;98163.22;4155722;28;20751;-73
2023/08/09 08:15:23;;;;;;;4.43;3.70;;;;;;;18.81;100.00;98172.63;4155343;28;20672;-75
2023/08/09 08:17:27;;;;;;;5.13;3.23;;;;;;;18.83;100.00;98184.72;4144403;28;20640;-73
2023/08/09 08:19:30;;;;;;;5.17;3.80;;;;;;;18.85;100.00;98174.81;4152864;28;20727;-73
2023/08/09 08:21:34;;;;;;;4.97;3.40;;;;;;;18.86;100.00;98181.78;4155145;28;20736;-74
2023/08/09 08:23:37;;;;;;;4.90;2.83;;;;;;;18.85;100.00;98184.56;4155927;28;21034;-75
2023/08/09 08:25:41;;;;;;;4.80;3.87;;;;;;;18.85;100.00;98195.16;4137167;28;21238;-74
2023/08/09 08:27:45;;;;;;;5.10;3.30;;;;;;;18.82;100.00;98195.44;4153660;28;20637;-74
2023/08/09 08:29:49;;;;;;;4.50;2.80;;;;;;;18.76;100.00;98194.25;4124413;28;20628;-75
2023/08/09 08:31:52;;;;;;;6.30;3.97;;;;;;;18.68;100.00;98199.47;4153607;28;20672;-73
2023/08/09 08:33:56;;;;;;;4.70;2.87;;;;;;;18.64;100.00;98195.47;4145102;28;20632;-74
2023/08/09 08:35:59;;;;;;;5.67;3.47;;;;;;;18.62;100.00;98202.72;4135199;28;20619;-74
2023/08/09 08:38:23;;;;;;;4.60;2.40;;;;;;;18.58;100.00;98209.31;4154208;28;20628;-73
2023/08/09 08:40:26;;;;;;;4.13;2.93;;;;;;;18.53;100.00;98208.06;4154242;28;21350;-74
2023/08/09 08:42:30;;;;;;;3.90;2.47;;;;;;;18.51;100.00;98202.13;4136821;28;21255;-74
2023/08/09 08:44:35;;;;;;;3.87;2.80;;;;;;;18.48;100.00;98205.06;4142368;28;21204;-74
2023/08/09 08:46:38;;;;;;;2.80;2.33;;;;;;;18.45;100.00;98214.09;4135296;28;21265;-74
2023/08/09 08:48:44;;;;;;;3.70;2.80;;;;;;;18.46;100.00;98214.94;4128590;28;20644;-75
2023/08/09 08:50:49;;;;;;;4.80;2.63;;;;;;;18.43;100.00;98221.38;4151616;28;21713;-76
2023/08/09 08:52:52;;;;;;;3.63;2.53;;;;;;;18.41;100.00;98224.31;4134079;28;20641;-73
2023/08/09 08:54:56;;;;;;;5.80;2.83;;;;;;;18.41;100.00;98228.59;4119940;28;20632;-74
2023/08/09 08:56:59;;;;;;;2.97;2.40;;;;;;;18.36;100.00;98215.97;4136216;28;20693;-73
2023/08/09 08:59:03;;;;;;;4.27;2.30;;;;;;;18.40;100.00;98214.72;4137665;28;21072;-73
2023/08/09 09:01:09;;;;;;;4.03;2.77;;;;;;;18.40;100.00;98206.78;4134686;28;20643;-74
2023/08/09 09:03:14;;;;;;;3.97;2.93;;;;;;;18.33;100.00;98208.34;4154976;28;20633;-74
2023/08/09 09:05:17;;;;;;;3.03;2.43;;;;;;;18.33;100.00;98211.00;4152518;28;20655;-74
2023/08/09 09:07:22;;;;;;;3.60;2.87;;;;;;;18.34;100.00;98208.19;4147620;28;20657;-74
2023/08/09 09:09:25;;;;;;;4.43;3.00;;;;;;;18.36;100.00;98216.81;4151110;28;20623;-74
2023/08/09 09:11:28;;;;;;;3.80;2.73;;;;;;;18.38;100.00;98222.78;4153270;28;20628;-74
2023/08/09 09:13:33;;;;;;;4.20;2.73;;;;;;;18.38;100.00;98216.69;4144296;28;20727;-73
2023/08/09 09:15:36;;;;;;;3.07;2.17;;;;;;;18.37;100.00;98225.56;4144545;28;20732;-75
2023/08/09 09:17:41;;;;;;;3.33;2.77;;;;;;;18.37;100.00;98229.03;4147609;28;20643;-74
2023/08/09 09:19:44;;;;;;;4.20;2.30;;;;;;;18.39;100.00;98236.81;4154024;28;20663;-75
2023/08/09 09:21:47;;;;;;;4.37;2.90;;;;;;;18.41;100.00;98233.88;4127835;28;20646;-74
2023/08/09 09:23:52;;;;;;;4.80;3.40;;;;;;;18.42;100.00;98230.25;4144641;28;20630;-75
2023/08/09 09:26:08;;;;;;;3.40;2.70;;;;;;;18.42;100.00;98235.53;4142659;28;20691;-74
2023/08/09 09:28:18;;;;;;;3.80;2.60;;;;;;;18.40;100.00;98234.03;4152340;28;21032;-76
2023/08/09 09:30:24;;;;;;;3.70;2.80;;;;;;;18.38;100.00;98238.63;4138683;28;20715;-74
2023/08/09 09:32:27;;;;;;;4.33;3.40;;;;;;;18.36;100.00;98240.59;4126088;28;20641;-74
2023/08/09 09:34:31;;;;;;;3.30;2.90;;;;;;;18.38;100.00;98245.72;4142439;28;20722;-74
2023/08/09 09:36:38;;;;;;;4.03;3.03;;;;;;;18.35;100.00;98249.50;4159699;28;21022;-74
2023/08/09 09:38:41;;;;;;;5.10;3.47;;;;;;;18.35;100.00;98251.31;4130786;28;20638;-74